sensor_id;sensor_type;location;lat;lon;timestamp;P1;durP1;ratioP1;P2;durP2;ratioP2
25057;SDS011;13057;50.978;11.034;2023-02-28T00:00:09;5.40;;;3.70;;
25057;SDS011;13057;50.978;11.034;2023-02-28T00:02:37;6.00;;;4.20;;
25057;SDS011;13057;50.978;11.034;2023-02-28T00:05:05;4.50;;;3.42;;
25057;SDS011;13057;50.978;11.034;2023-02-28T00:07:32;5.43;;;3.72;;
25057;SDS011;13057;50.978;11.034;2023-02-28T00:09:59;7.68;;;3.85;;
25057;SDS011;13057;50.978;11.034;2023-02-28T00:12:25;4.72;;;3.70;;
25057;SDS011;13057;50.978;11.034;2023-02-28T00:14:52;7.13;;;3.63;;
25057;SDS011;13057;50.978;11.034;2023-02-28T00:17:18;4.85;;;3.83;;
25057;SDS011;13057;50.978;11.034;2023-02-28T00:19:46;6.30;;;4.20;;
25057;SDS011;13057;50.978;11.034;2023-02-28T00:22:13;5.47;;;3.88;;
25057;SDS011;13057;50.978;11.034;2023-02-28T00:24:41;7.00;;;3.90;;
25057;SDS011;13057;50.978;11.034;2023-02-28T00:27:06;6.43;;;4.50;;
25057;SDS011;13057;50.978;11.034;2023-02-28T00:29:32;5.78;;;4.05;;
25057;SDS011;13057;50.978;11.034;2023-02-28T00:31:58;5.00;;;3.85;;
25057;SDS011;13057;50.978;11.034;2023-02-28T00:34:24;5.95;;;3.80;;
25057;SDS011;13057;50.978;11.034;2023-02-28T00:36:50;5.50;;;3.72;;
25057;SDS011;13057;50.978;11.034;2023-02-28T00:39:16;7.65;;;4.07;;
25057;SDS011;13057;50.978;11.034;2023-02-28T00:41:42;4.90;;;3.83;;
25057;SDS011;13057;50.978;11.034;2023-02-28T00:44:08;5.05;;;4.00;;
25057;SDS011;13057;50.978;11.034;2023-02-28T00:46:34;4.82;;;3.92;;
25057;SDS011;13057;50.978;11.034;2023-02-28T00:49:00;5.85;;;3.90;;
25057;SDS011;13057;50.978;11.034;2023-02-28T00:51:26;8.80;;;4.10;;
25057;SDS011;13057;50.978;11.034;2023-02-28T00:53:52;6.78;;;4.07;;
25057;SDS011;13057;50.978;11.034;2023-02-28T00:56:17;5.85;;;4.50;;
25057;SDS011;13057;50.978;11.034;2023-02-28T00:58:43;5.85;;;4.03;;
25057;SDS011;13057;50.978;11.034;2023-02-28T01:01:09;6.18;;;4.15;;
25057;SDS011;13057;50.978;11.034;2023-02-28T01:03:35;5.70;;;3.83;;
25057;SDS011;13057;50.978;11.034;2023-02-28T01:06:01;9.02;;;4.55;;
25057;SDS011;13057;50.978;11.034;2023-02-28T01:08:27;5.28;;;4.35;;
25057;SDS011;13057;50.978;11.034;2023-02-28T01:10:53;11.05;;;4.82;;
25057;SDS011;13057;50.978;11.034;2023-02-28T01:13:19;6.25;;;4.50;;
25057;SDS011;13057;50.978;11.034;2023-02-28T01:15:49;7.57;;;4.60;;
25057;SDS011;13057;50.978;11.034;2023-02-28T01:18:16;4.82;;;3.72;;
25057;SDS011;13057;50.978;11.034;2023-02-28T01:20:42;5.72;;;3.63;;
25057;SDS011;13057;50.978;11.034;2023-02-28T01:23:09;5.93;;;4.43;;
25057;SDS011;13057;50.978;11.034;2023-02-28T01:25:35;6.45;;;3.90;;
25057;SDS011;13057;50.978;11.034;2023-02-28T01:28:01;5.63;;;3.80;;
25057;SDS011;13057;50.978;11.034;2023-02-28T01:30:27;5.45;;;3.80;;
25057;SDS011;13057;50.978;11.034;2023-02-28T01:32:53;7.32;;;3.83;;
25057;SDS011;13057;50.978;11.034;2023-02-28T01:35:19;6.25;;;3.90;;
25057;SDS011;13057;50.978;11.034;2023-02-28T01:37:45;5.57;;;4.13;;
25057;SDS011;13057;50.978;11.034;2023-02-28T01:40:11;7.40;;;4.03;;
25057;SDS011;13057;50.978;11.034;2023-02-28T01:42:38;5.95;;;4.10;;
25057;SDS011;13057;50.978;11.034;2023-02-28T01:45:07;5.68;;;4.00;;
25057;SDS011;13057;50.978;11.034;2023-02-28T01:47:51;6.20;;;3.85;;
25057;SDS011;13057;50.978;11.034;2023-02-28T01:50:23;7.55;;;4.43;;
25057;SDS011;13057;50.978;11.034;2023-02-28T01:52:54;7.10;;;3.92;;
25057;SDS011;13057;50.978;11.034;2023-02-28T01:55:22;6.40;;;4.28;;
25057;SDS011;13057;50.978;11.034;2023-02-28T01:57:55;6.18;;;4.30;;
25057;SDS011;13057;50.978;11.034;2023-02-28T02:00:23;8.57;;;4.13;;
25057;SDS011;13057;50.978;11.034;2023-02-28T02:02:53;5.03;;;3.70;;
25057;SDS011;13057;50.978;11.034;2023-02-28T02:05:24;7.80;;;4.43;;
25057;SDS011;13057;50.978;11.034;2023-02-28T02:07:54;5.68;;;4.00;;
25057;SDS011;13057;50.978;11.034;2023-02-28T02:10:24;7.32;;;4.05;;
25057;SDS011;13057;50.978;11.034;2023-02-28T02:13:08;7.25;;;4.28;;
25057;SDS011;13057;50.978;11.034;2023-02-28T02:15:53;7.00;;;4.20;;
25057;SDS011;13057;50.978;11.034;2023-02-28T02:18:33;4.53;;;3.50;;
25057;SDS011;13057;50.978;11.034;2023-02-28T02:21:36;5.53;;;3.60;;
25057;SDS011;13057;50.978;11.034;2023-02-28T02:29:59;5.32;;;3.03;;
25057;SDS011;13057;50.978;11.034;2023-02-28T02:32:56;3.95;;;3.20;;
25057;SDS011;13057;50.978;11.034;2023-02-28T02:35:39;5.15;;;3.55;;
25057;SDS011;13057;50.978;11.034;2023-02-28T02:38:15;3.97;;;3.13;;
25057;SDS011;13057;50.978;11.034;2023-02-28T02:41:04;5.43;;;3.22;;
25057;SDS011;13057;50.978;11.034;2023-02-28T02:43:40;4.97;;;3.00;;
25057;SDS011;13057;50.978;11.034;2023-02-28T02:46:17;4.57;;;3.20;;
25057;SDS011;13057;50.978;11.034;2023-02-28T02:48:47;5.22;;;3.50;;
25057;SDS011;13057;50.978;11.034;2023-02-28T02:51:16;3.78;;;3.05;;
25057;SDS011;13057;50.978;11.034;2023-02-28T02:53:46;4.50;;;3.30;;
25057;SDS011;13057;50.978;11.034;2023-02-28T02:56:17;6.55;;;3.58;;
25057;SDS011;13057;50.978;11.034;2023-02-28T02:58:46;3.80;;;3.00;;
25057;SDS011;13057;50.978;11.034;2023-02-28T03:01:15;5.43;;;3.08;;
25057;SDS011;13057;50.978;11.034;2023-02-28T03:03:56;4.70;;;3.20;;
25057;SDS011;13057;50.978;11.034;2023-02-28T03:06:24;6.15;;;3.83;;
25057;SDS011;13057;50.978;11.034;2023-02-28T03:08:50;6.00;;;4.03;;
25057;SDS011;13057;50.978;11.034;2023-02-28T03:11:17;4.05;;;3.05;;
25057;SDS011;13057;50.978;11.034;2023-02-28T03:13:49;6.85;;;3.50;;
25057;SDS011;13057;50.978;11.034;2023-02-28T03:16:29;5.88;;;3.78;;
25057;SDS011;13057;50.978;11.034;2023-02-28T03:19:19;4.95;;;3.25;;
25057;SDS011;13057;50.978;11.034;2023-02-28T03:22:05;6.45;;;3.75;;
25057;SDS011;13057;50.978;11.034;2023-02-28T03:27:27;4.00;;;3.35;;
25057;SDS011;13057;50.978;11.034;2023-02-28T03:30:02;5.88;;;3.90;;
25057;SDS011;13057;50.978;11.034;2023-02-28T03:32:33;5.38;;;3.67;;
25057;SDS011;13057;50.978;11.034;2023-02-28T03:35:08;6.80;;;3.67;;
25057;SDS011;13057;50.978;11.034;2023-02-28T03:37:40;6.05;;;3.88;;
25057;SDS011;13057;50.978;11.034;2023-02-28T03:40:10;5.90;;;3.60;;
25057;SDS011;13057;50.978;11.034;2023-02-28T03:42:43;5.00;;;3.47;;
25057;SDS011;13057;50.978;11.034;2023-02-28T03:45:16;5.95;;;3.80;;
25057;SDS011;13057;50.978;11.034;2023-02-28T03:47:52;6.25;;;4.22;;
25057;SDS011;13057;50.978;11.034;2023-02-28T03:50:21;5.30;;;4.13;;
25057;SDS011;13057;50.978;11.034;2023-02-28T03:53:01;6.00;;;4.10;;
25057;SDS011;13057;50.978;11.034;2023-02-28T03:55:36;5.10;;;3.88;;
25057;SDS011;13057;50.978;11.034;2023-02-28T03:58:08;6.88;;;3.78;;
25057;SDS011;13057;50.978;11.034;2023-02-28T04:00:48;7.03;;;3.78;;
25057;SDS011;13057;50.978;11.034;2023-02-28T04:03:20;5.82;;;3.95;;
25057;SDS011;13057;50.978;11.034;2023-02-28T04:05:51;6.00;;;3.95;;
25057;SDS011;13057;50.978;11.034;2023-02-28T04:08:18;5.63;;;3.80;;
25057;SDS011;13057;50.978;11.034;2023-02-28T04:10:45;5.88;;;4.32;;
25057;SDS011;13057;50.978;11.034;2023-02-28T04:13:16;5.68;;;3.97;;
25057;SDS011;13057;50.978;11.034;2023-02-28T04:15:42;6.85;;;3.97;;
25057;SDS011;13057;50.978;11.034;2023-02-28T04:18:08;6.15;;;3.70;;
25057;SDS011;13057;50.978;11.034;2023-02-28T04:20:34;6.47;;;4.00;;
25057;SDS011;13057;50.978;11.034;2023-02-28T04:23:00;7.63;;;4.28;;
25057;SDS011;13057;50.978;11.034;2023-02-28T04:25:25;6.63;;;4.15;;
25057;SDS011;13057;50.978;11.034;2023-02-28T04:27:51;7.63;;;4.47;;
25057;SDS011;13057;50.978;11.034;2023-02-28T04:30:17;6.40;;;4.07;;
25057;SDS011;13057;50.978;11.034;2023-02-28T04:32:43;6.43;;;3.90;;
25057;SDS011;13057;50.978;11.034;2023-02-28T04:35:09;8.18;;;4.38;;
25057;SDS011;13057;50.978;11.034;2023-02-28T04:37:35;7.15;;;4.10;;
25057;SDS011;13057;50.978;11.034;2023-02-28T04:40:03;8.88;;;4.65;;
25057;SDS011;13057;50.978;11.034;2023-02-28T04:42:29;7.28;;;4.60;;
25057;SDS011;13057;50.978;11.034;2023-02-28T04:45:01;8.98;;;4.32;;
25057;SDS011;13057;50.978;11.034;2023-02-28T04:47:27;7.95;;;4.25;;
25057;SDS011;13057;50.978;11.034;2023-02-28T04:49:53;8.20;;;4.40;;
25057;SDS011;13057;50.978;11.034;2023-02-28T04:52:19;8.35;;;4.57;;
25057;SDS011;13057;50.978;11.034;2023-02-28T04:54:45;7.80;;;4.10;;
25057;SDS011;13057;50.978;11.034;2023-02-28T04:57:11;8.52;;;4.25;;
25057;SDS011;13057;50.978;11.034;2023-02-28T04:59:37;6.85;;;4.13;;
25057;SDS011;13057;50.978;11.034;2023-02-28T05:02:03;6.40;;;4.22;;
25057;SDS011;13057;50.978;11.034;2023-02-28T05:04:33;6.43;;;3.90;;
25057;SDS011;13057;50.978;11.034;2023-02-28T05:07:00;10.07;;;4.40;;
25057;SDS011;13057;50.978;11.034;2023-02-28T05:09:26;12.93;;;5.35;;
25057;SDS011;13057;50.978;11.034;2023-02-28T05:11:53;5.43;;;4.10;;
25057;SDS011;13057;50.978;11.034;2023-02-28T05:14:20;5.30;;;4.07;;
25057;SDS011;13057;50.978;11.034;2023-02-28T05:16:46;14.88;;;4.90;;
25057;SDS011;13057;50.978;11.034;2023-02-28T05:19:12;9.60;;;4.35;;
25057;SDS011;13057;50.978;11.034;2023-02-28T05:21:41;8.63;;;4.60;;
25057;SDS011;13057;50.978;11.034;2023-02-28T05:24:17;6.25;;;4.13;;
25057;SDS011;13057;50.978;11.034;2023-02-28T05:26:47;7.57;;;4.30;;
25057;SDS011;13057;50.978;11.034;2023-02-28T05:29:15;10.15;;;4.50;;
25057;SDS011;13057;50.978;11.034;2023-02-28T05:31:40;10.07;;;4.63;;
25057;SDS011;13057;50.978;11.034;2023-02-28T05:34:06;7.55;;;4.93;;
25057;SDS011;13057;50.978;11.034;2023-02-28T05:36:33;6.90;;;4.90;;
25057;SDS011;13057;50.978;11.034;2023-02-28T05:38:59;7.75;;;4.90;;
25057;SDS011;13057;50.978;11.034;2023-02-28T05:41:24;7.30;;;4.60;;
25057;SDS011;13057;50.978;11.034;2023-02-28T05:43:51;7.07;;;4.70;;
25057;SDS011;13057;50.978;11.034;2023-02-28T05:46:16;8.07;;;4.78;;
25057;SDS011;13057;50.978;11.034;2023-02-28T05:48:45;8.23;;;5.35;;
25057;SDS011;13057;50.978;11.034;2023-02-28T05:51:12;7.40;;;5.15;;
25057;SDS011;13057;50.978;11.034;2023-02-28T05:53:38;10.05;;;4.57;;
25057;SDS011;13057;50.978;11.034;2023-02-28T05:56:04;8.73;;;4.43;;
25057;SDS011;13057;50.978;11.034;2023-02-28T05:58:30;10.98;;;4.70;;
25057;SDS011;13057;50.978;11.034;2023-02-28T06:00:57;8.48;;;4.82;;
25057;SDS011;13057;50.978;11.034;2023-02-28T06:03:24;9.00;;;5.00;;
25057;SDS011;13057;50.978;11.034;2023-02-28T06:05:50;9.95;;;5.47;;
25057;SDS011;13057;50.978;11.034;2023-02-28T06:08:15;6.18;;;4.75;;
25057;SDS011;13057;50.978;11.034;2023-02-28T06:10:42;10.77;;;5.03;;
25057;SDS011;13057;50.978;11.034;2023-02-28T06:13:07;7.60;;;4.93;;
25057;SDS011;13057;50.978;11.034;2023-02-28T06:15:33;6.60;;;4.43;;
25057;SDS011;13057;50.978;11.034;2023-02-28T06:17:59;7.65;;;4.97;;
25057;SDS011;13057;50.978;11.034;2023-02-28T06:20:26;8.27;;;4.85;;
25057;SDS011;13057;50.978;11.034;2023-02-28T06:22:55;9.05;;;4.60;;
25057;SDS011;13057;50.978;11.034;2023-02-28T06:25:23;8.75;;;4.78;;
25057;SDS011;13057;50.978;11.034;2023-02-28T06:27:50;9.63;;;5.60;;
25057;SDS011;13057;50.978;11.034;2023-02-28T06:30:16;9.73;;;5.70;;
25057;SDS011;13057;50.978;11.034;2023-02-28T06:32:42;6.70;;;4.80;;
25057;SDS011;13057;50.978;11.034;2023-02-28T06:35:08;9.07;;;5.43;;
25057;SDS011;13057;50.978;11.034;2023-02-28T06:37:35;6.65;;;5.00;;
25057;SDS011;13057;50.978;11.034;2023-02-28T06:40:01;10.88;;;6.25;;
25057;SDS011;13057;50.978;11.034;2023-02-28T06:42:28;9.40;;;5.28;;
25057;SDS011;13057;50.978;11.034;2023-02-28T06:44:56;10.65;;;5.15;;
25057;SDS011;13057;50.978;11.034;2023-02-28T06:47:22;10.90;;;5.00;;
25057;SDS011;13057;50.978;11.034;2023-02-28T06:49:48;7.40;;;5.00;;
25057;SDS011;13057;50.978;11.034;2023-02-28T06:52:14;7.78;;;4.40;;
25057;SDS011;13057;50.978;11.034;2023-02-28T06:54:40;9.98;;;4.65;;
25057;SDS011;13057;50.978;11.034;2023-02-28T06:57:07;16.85;;;8.60;;
25057;SDS011;13057;50.978;11.034;2023-02-28T06:59:33;8.90;;;4.50;;
25057;SDS011;13057;50.978;11.034;2023-02-28T07:02:00;5.55;;;4.13;;
25057;SDS011;13057;50.978;11.034;2023-02-28T07:04:27;5.78;;;4.25;;
25057;SDS011;13057;50.978;11.034;2023-02-28T07:06:55;7.32;;;4.32;;
25057;SDS011;13057;50.978;11.034;2023-02-28T07:09:22;8.32;;;4.32;;
25057;SDS011;13057;50.978;11.034;2023-02-28T07:11:48;7.15;;;3.90;;
25057;SDS011;13057;50.978;11.034;2023-02-28T07:14:14;7.43;;;4.18;;
25057;SDS011;13057;50.978;11.034;2023-02-28T07:16:40;7.15;;;3.95;;
25057;SDS011;13057;50.978;11.034;2023-02-28T07:19:06;5.72;;;4.00;;
25057;SDS011;13057;50.978;11.034;2023-02-28T07:21:31;6.10;;;4.15;;
25057;SDS011;13057;50.978;11.034;2023-02-28T07:23:58;7.28;;;4.93;;
25057;SDS011;13057;50.978;11.034;2023-02-28T07:26:24;6.22;;;4.15;;
25057;SDS011;13057;50.978;11.034;2023-02-28T07:28:49;7.65;;;5.25;;
25057;SDS011;13057;50.978;11.034;2023-02-28T07:31:15;5.78;;;3.80;;
25057;SDS011;13057;50.978;11.034;2023-02-28T07:33:42;6.07;;;3.75;;
25057;SDS011;13057;50.978;11.034;2023-02-28T07:36:09;9.25;;;4.25;;
25057;SDS011;13057;50.978;11.034;2023-02-28T07:38:40;7.25;;;4.07;;
25057;SDS011;13057;50.978;11.034;2023-02-28T07:41:07;7.63;;;4.25;;
25057;SDS011;13057;50.978;11.034;2023-02-28T07:43:33;7.03;;;4.25;;
25057;SDS011;13057;50.978;11.034;2023-02-28T07:46:02;6.65;;;4.35;;
25057;SDS011;13057;50.978;11.034;2023-02-28T07:48:30;7.72;;;4.43;;
25057;SDS011;13057;50.978;11.034;2023-02-28T07:50:56;11.05;;;4.97;;
25057;SDS011;13057;50.978;11.034;2023-02-28T07:53:23;8.77;;;4.88;;
25057;SDS011;13057;50.978;11.034;2023-02-28T07:55:49;7.38;;;4.50;;
25057;SDS011;13057;50.978;11.034;2023-02-28T07:58:15;8.85;;;4.70;;
25057;SDS011;13057;50.978;11.034;2023-02-28T08:00:41;6.03;;;4.07;;
25057;SDS011;13057;50.978;11.034;2023-02-28T08:03:08;7.80;;;4.30;;
25057;SDS011;13057;50.978;11.034;2023-02-28T08:05:38;6.50;;;4.13;;
25057;SDS011;13057;50.978;11.034;2023-02-28T08:08:05;6.20;;;4.00;;
25057;SDS011;13057;50.978;11.034;2023-02-28T08:10:32;7.97;;;4.10;;
25057;SDS011;13057;50.978;11.034;2023-02-28T08:13:01;10.32;;;4.28;;
25057;SDS011;13057;50.978;11.034;2023-02-28T08:15:27;6.28;;;4.22;;
25057;SDS011;13057;50.978;11.034;2023-02-28T08:17:53;5.88;;;4.18;;
25057;SDS011;13057;50.978;11.034;2023-02-28T08:20:21;8.50;;;4.28;;
25057;SDS011;13057;50.978;11.034;2023-02-28T08:22:48;7.38;;;4.00;;
25057;SDS011;13057;50.978;11.034;2023-02-28T08:25:14;10.25;;;3.90;;
25057;SDS011;13057;50.978;11.034;2023-02-28T08:27:40;7.13;;;4.50;;
25057;SDS011;13057;50.978;11.034;2023-02-28T08:30:07;6.63;;;3.92;;
25057;SDS011;13057;50.978;11.034;2023-02-28T08:32:35;8.88;;;4.20;;
25057;SDS011;13057;50.978;11.034;2023-02-28T08:35:01;7.30;;;4.05;;
25057;SDS011;13057;50.978;11.034;2023-02-28T08:37:28;5.93;;;3.63;;
25057;SDS011;13057;50.978;11.034;2023-02-28T08:39:54;9.88;;;3.80;;
25057;SDS011;13057;50.978;11.034;2023-02-28T08:42:20;6.10;;;3.90;;
25057;SDS011;13057;50.978;11.034;2023-02-28T08:44:46;5.80;;;4.10;;
25057;SDS011;13057;50.978;11.034;2023-02-28T08:47:12;10.35;;;4.82;;
25057;SDS011;13057;50.978;11.034;2023-02-28T08:49:38;7.65;;;4.60;;
25057;SDS011;13057;50.978;11.034;2023-02-28T08:52:03;11.38;;;4.75;;
25057;SDS011;13057;50.978;11.034;2023-02-28T08:54:30;12.65;;;7.50;;
25057;SDS011;13057;50.978;11.034;2023-02-28T08:56:57;8.95;;;4.80;;
25057;SDS011;13057;50.978;11.034;2023-02-28T08:59:23;9.52;;;4.63;;
25057;SDS011;13057;50.978;11.034;2023-02-28T09:01:48;12.40;;;4.30;;
25057;SDS011;13057;50.978;11.034;2023-02-28T09:04:14;7.15;;;4.50;;
25057;SDS011;13057;50.978;11.034;2023-02-28T09:06:40;8.45;;;4.60;;
25057;SDS011;13057;50.978;11.034;2023-02-28T09:09:06;12.68;;;5.05;;
25057;SDS011;13057;50.978;11.034;2023-02-28T09:11:33;6.85;;;4.22;;
25057;SDS011;13057;50.978;11.034;2023-02-28T09:14:00;9.32;;;4.05;;
25057;SDS011;13057;50.978;11.034;2023-02-28T09:16:28;7.43;;;4.00;;
25057;SDS011;13057;50.978;11.034;2023-02-28T09:18:54;7.35;;;3.80;;
25057;SDS011;13057;50.978;11.034;2023-02-28T09:21:20;12.23;;;3.90;;
25057;SDS011;13057;50.978;11.034;2023-02-28T09:23:47;9.07;;;3.95;;
25057;SDS011;13057;50.978;11.034;2023-02-28T09:26:15;5.40;;;3.35;;
25057;SDS011;13057;50.978;11.034;2023-02-28T09:28:42;6.78;;;3.70;;
25057;SDS011;13057;50.978;11.034;2023-02-28T09:31:12;4.65;;;3.10;;
25057;SDS011;13057;50.978;11.034;2023-02-28T09:33:40;6.93;;;3.45;;
25057;SDS011;13057;50.978;11.034;2023-02-28T09:36:06;6.68;;;3.50;;
25057;SDS011;13057;50.978;11.034;2023-02-28T09:38:33;9.40;;;3.78;;
25057;SDS011;13057;50.978;11.034;2023-02-28T09:41:00;5.93;;;3.50;;
25057;SDS011;13057;50.978;11.034;2023-02-28T09:43:30;6.45;;;3.72;;
25057;SDS011;13057;50.978;11.034;2023-02-28T09:49:00;8.50;;;3.40;;
25057;SDS011;13057;50.978;11.034;2023-02-28T09:54:18;9.65;;;4.65;;
25057;SDS011;13057;50.978;11.034;2023-02-28T09:56:48;5.90;;;3.28;;
25057;SDS011;13057;50.978;11.034;2023-02-28T09:59:36;7.05;;;3.45;;
25057;SDS011;13057;50.978;11.034;2023-02-28T10:02:36;7.75;;;3.70;;
25057;SDS011;13057;50.978;11.034;2023-02-28T10:05:15;6.15;;;3.42;;
25057;SDS011;13057;50.978;11.034;2023-02-28T10:07:56;7.55;;;3.25;;
25057;SDS011;13057;50.978;11.034;2023-02-28T10:10:37;5.38;;;3.58;;
25057;SDS011;13057;50.978;11.034;2023-02-28T10:13:13;8.65;;;3.63;;
25057;SDS011;13057;50.978;11.034;2023-02-28T10:15:47;6.70;;;4.07;;
25057;SDS011;13057;50.978;11.034;2023-02-28T10:20:47;7.82;;;4.00;;
25057;SDS011;13057;50.978;11.034;2023-02-28T10:23:17;6.15;;;3.33;;
25057;SDS011;13057;50.978;11.034;2023-02-28T10:25:50;6.00;;;3.60;;
25057;SDS011;13057;50.978;11.034;2023-02-28T10:28:21;8.82;;;3.60;;
25057;SDS011;13057;50.978;11.034;2023-02-28T10:30:50;8.20;;;4.13;;
25057;SDS011;13057;50.978;11.034;2023-02-28T10:33:22;5.53;;;3.53;;
25057;SDS011;13057;50.978;11.034;2023-02-28T10:35:51;9.10;;;3.40;;
25057;SDS011;13057;50.978;11.034;2023-02-28T10:38:20;5.47;;;3.67;;
25057;SDS011;13057;50.978;11.034;2023-02-28T10:40:49;9.35;;;4.30;;
25057;SDS011;13057;50.978;11.034;2023-02-28T10:43:19;5.88;;;3.78;;
25057;SDS011;13057;50.978;11.034;2023-02-28T10:45:57;8.25;;;4.03;;
25057;SDS011;13057;50.978;11.034;2023-02-28T10:48:29;9.15;;;4.57;;
25057;SDS011;13057;50.978;11.034;2023-02-28T10:50:58;5.50;;;3.97;;
25057;SDS011;13057;50.978;11.034;2023-02-28T10:53:28;9.80;;;3.58;;
25057;SDS011;13057;50.978;11.034;2023-02-28T10:55:58;7.63;;;3.60;;
25057;SDS011;13057;50.978;11.034;2023-02-28T11:01:23;9.43;;;4.32;;
25057;SDS011;13057;50.978;11.034;2023-02-28T11:04:00;6.60;;;4.03;;
25057;SDS011;13057;50.978;11.034;2023-02-28T11:06:29;5.15;;;3.58;;
25057;SDS011;13057;50.978;11.034;2023-02-28T11:08:59;6.75;;;4.28;;
25057;SDS011;13057;50.978;11.034;2023-02-28T11:11:29;5.55;;;3.60;;
25057;SDS011;13057;50.978;11.034;2023-02-28T11:14:07;6.78;;;3.70;;
25057;SDS011;13057;50.978;11.034;2023-02-28T11:16:46;6.13;;;4.07;;
25057;SDS011;13057;50.978;11.034;2023-02-28T11:19:22;5.75;;;3.70;;
25057;SDS011;13057;50.978;11.034;2023-02-28T11:21:55;6.85;;;3.90;;
25057;SDS011;13057;50.978;11.034;2023-02-28T11:24:28;10.48;;;5.18;;
25057;SDS011;13057;50.978;11.034;2023-02-28T11:26:59;6.35;;;3.75;;
25057;SDS011;13057;50.978;11.034;2023-02-28T11:29:26;5.72;;;3.65;;
25057;SDS011;13057;50.978;11.034;2023-02-28T11:32:03;7.95;;;4.38;;
25057;SDS011;13057;50.978;11.034;2023-02-28T11:34:41;6.30;;;4.30;;
25057;SDS011;13057;50.978;11.034;2023-02-28T11:37:12;7.45;;;4.63;;
25057;SDS011;13057;50.978;11.034;2023-02-28T11:39:43;5.57;;;3.78;;
25057;SDS011;13057;50.978;11.034;2023-02-28T11:45:18;5.32;;;4.07;;
25057;SDS011;13057;50.978;11.034;2023-02-28T11:50:52;8.80;;;3.83;;
25057;SDS011;13057;50.978;11.034;2023-02-28T11:53:44;20.52;;;10.05;;
25057;SDS011;13057;50.978;11.034;2023-02-28T11:56:37;6.70;;;4.28;;
25057;SDS011;13057;50.978;11.034;2023-02-28T11:59:15;7.03;;;4.22;;
25057;SDS011;13057;50.978;11.034;2023-02-28T12:02:20;5.80;;;3.97;;
25057;SDS011;13057;50.978;11.034;2023-02-28T12:04:53;7.00;;;4.33;;
25057;SDS011;13057;50.978;11.034;2023-02-28T12:07:50;7.53;;;4.22;;
25057;SDS011;13057;50.978;11.034;2023-02-28T12:10:52;8.13;;;4.78;;
25057;SDS011;13057;50.978;11.034;2023-02-28T12:13:26;11.90;;;4.50;;
25057;SDS011;13057;50.978;11.034;2023-02-28T12:16:18;8.15;;;5.07;;
25057;SDS011;13057;50.978;11.034;2023-02-28T12:19:01;7.15;;;4.57;;
25057;SDS011;13057;50.978;11.034;2023-02-28T12:21:48;7.72;;;4.55;;
25057;SDS011;13057;50.978;11.034;2023-02-28T12:24:31;10.55;;;5.05;;
25057;SDS011;13057;50.978;11.034;2023-02-28T12:27:07;6.70;;;4.30;;
25057;SDS011;13057;50.978;11.034;2023-02-28T12:29:44;7.70;;;5.10;;
25057;SDS011;13057;50.978;11.034;2023-02-28T12:32:18;6.28;;;4.75;;
25057;SDS011;13057;50.978;11.034;2023-02-28T12:34:52;5.82;;;4.40;;
25057;SDS011;13057;50.978;11.034;2023-02-28T12:37:25;8.82;;;5.00;;
25057;SDS011;13057;50.978;11.034;2023-02-28T12:40:00;8.30;;;5.20;;
25057;SDS011;13057;50.978;11.034;2023-02-28T12:42:33;10.15;;;5.88;;
25057;SDS011;13057;50.978;11.034;2023-02-28T12:45:05;7.57;;;4.68;;
25057;SDS011;13057;50.978;11.034;2023-02-28T12:47:42;6.72;;;4.55;;
25057;SDS011;13057;50.978;11.034;2023-02-28T12:50:11;8.90;;;4.78;;
25057;SDS011;13057;50.978;11.034;2023-02-28T12:52:47;5.72;;;4.30;;
25057;SDS011;13057;50.978;11.034;2023-02-28T13:01:17;7.75;;;5.15;;
25057;SDS011;13057;50.978;11.034;2023-02-28T13:04:05;7.32;;;4.60;;
25057;SDS011;13057;50.978;11.034;2023-02-28T13:07:00;7.30;;;5.47;;
25057;SDS011;13057;50.978;11.034;2023-02-28T13:09:53;9.68;;;5.47;;
25057;SDS011;13057;50.978;11.034;2023-02-28T13:12:21;8.07;;;5.13;;
25057;SDS011;13057;50.978;11.034;2023-02-28T13:14:48;8.57;;;5.03;;
25057;SDS011;13057;50.978;11.034;2023-02-28T13:17:18;11.10;;;5.10;;
25057;SDS011;13057;50.978;11.034;2023-02-28T13:19:55;10.38;;;6.43;;
25057;SDS011;13057;50.978;11.034;2023-02-28T13:28:08;8.85;;;5.10;;
25057;SDS011;13057;50.978;11.034;2023-02-28T13:33:34;8.27;;;4.40;;
25057;SDS011;13057;50.978;11.034;2023-02-28T13:38:57;8.25;;;5.82;;
25057;SDS011;13057;50.978;11.034;2023-02-28T13:41:43;8.95;;;5.80;;
25057;SDS011;13057;50.978;11.034;2023-02-28T13:44:15;9.95;;;6.00;;
25057;SDS011;13057;50.978;11.034;2023-02-28T13:49:49;11.80;;;6.40;;
25057;SDS011;13057;50.978;11.034;2023-02-28T13:52:17;9.02;;;5.80;;
25057;SDS011;13057;50.978;11.034;2023-02-28T13:54:53;11.77;;;5.55;;
25057;SDS011;13057;50.978;11.034;2023-02-28T13:57:45;9.23;;;6.18;;
25057;SDS011;13057;50.978;11.034;2023-02-28T14:00:35;11.15;;;5.82;;
25057;SDS011;13057;50.978;11.034;2023-02-28T14:03:26;8.63;;;5.90;;
25057;SDS011;13057;50.978;11.034;2023-02-28T14:06:08;10.30;;;6.20;;
25057;SDS011;13057;50.978;11.034;2023-02-28T14:08:50;10.77;;;5.88;;
25057;SDS011;13057;50.978;11.034;2023-02-28T14:11:38;8.93;;;6.07;;
25057;SDS011;13057;50.978;11.034;2023-02-28T14:14:07;14.48;;;7.93;;
25057;SDS011;13057;50.978;11.034;2023-02-28T14:16:44;10.48;;;6.30;;
25057;SDS011;13057;50.978;11.034;2023-02-28T14:19:14;10.90;;;7.22;;
25057;SDS011;13057;50.978;11.034;2023-02-28T14:22:00;8.88;;;6.30;;
25057;SDS011;13057;50.978;11.034;2023-02-28T14:25:05;13.23;;;6.47;;
25057;SDS011;13057;50.978;11.034;2023-02-28T14:27:53;13.60;;;8.50;;
25057;SDS011;13057;50.978;11.034;2023-02-28T14:30:43;10.23;;;6.32;;
25057;SDS011;13057;50.978;11.034;2023-02-28T14:33:23;11.95;;;6.32;;
25057;SDS011;13057;50.978;11.034;2023-02-28T14:38:42;11.77;;;7.28;;
25057;SDS011;13057;50.978;11.034;2023-02-28T14:41:14;11.38;;;5.90;;
25057;SDS011;13057;50.978;11.034;2023-02-28T14:43:53;10.98;;;6.25;;
25057;SDS011;13057;50.978;11.034;2023-02-28T14:46:25;11.10;;;7.20;;
25057;SDS011;13057;50.978;11.034;2023-02-28T14:48:56;9.98;;;6.45;;
25057;SDS011;13057;50.978;11.034;2023-02-28T14:51:23;8.93;;;6.30;;
25057;SDS011;13057;50.978;11.034;2023-02-28T14:53:55;11.93;;;6.40;;
25057;SDS011;13057;50.978;11.034;2023-02-28T14:56:35;9.45;;;6.35;;
25057;SDS011;13057;50.978;11.034;2023-02-28T14:59:04;8.63;;;5.95;;
25057;SDS011;13057;50.978;11.034;2023-02-28T15:01:48;9.10;;;5.93;;
25057;SDS011;13057;50.978;11.034;2023-02-28T15:04:18;8.98;;;6.55;;
25057;SDS011;13057;50.978;11.034;2023-02-28T15:07:06;10.73;;;6.55;;
25057;SDS011;13057;50.978;11.034;2023-02-28T15:09:35;9.43;;;5.78;;
25057;SDS011;13057;50.978;11.034;2023-02-28T15:12:02;9.75;;;6.55;;
25057;SDS011;13057;50.978;11.034;2023-02-28T15:14:30;10.65;;;7.07;;
25057;SDS011;13057;50.978;11.034;2023-02-28T15:16:59;9.20;;;6.53;;
25057;SDS011;13057;50.978;11.034;2023-02-28T15:19:36;10.88;;;6.68;;
25057;SDS011;13057;50.978;11.034;2023-02-28T15:22:11;12.27;;;6.20;;
25057;SDS011;13057;50.978;11.034;2023-02-28T15:24:47;10.48;;;6.00;;
25057;SDS011;13057;50.978;11.034;2023-02-28T15:27:20;11.80;;;6.20;;
25057;SDS011;13057;50.978;11.034;2023-02-28T15:29:51;10.70;;;7.30;;
25057;SDS011;13057;50.978;11.034;2023-02-28T15:34:52;9.15;;;6.38;;
25057;SDS011;13057;50.978;11.034;2023-02-28T15:37:27;10.85;;;6.05;;
25057;SDS011;13057;50.978;11.034;2023-02-28T15:39:57;9.90;;;6.05;;
25057;SDS011;13057;50.978;11.034;2023-02-28T15:42:43;18.00;;;6.80;;
25057;SDS011;13057;50.978;11.034;2023-02-28T15:45:26;8.50;;;6.13;;
25057;SDS011;13057;50.978;11.034;2023-02-28T15:47:58;11.50;;;6.93;;